Time;durP1;ratioP1;P1;durP2;ratioP2;P2;SDS_P1;SDS_P2;PMS_P1;PMS_P2;Temp;Humidity;BMP_temperature;BMP_pressure;BME280_temperature;BME280_humidity;BME280_pressure;Samples;Min_cycle;Max_cycle;Signal;HPM_P1;HPM_P2
2024/03/20 00:02:07;;;;;;;6.15;4.70;;;;;;;;;;5057382;28;20059;-57
2024/03/20 00:04:33;;;;;;;6.82;4.53;;;;;;;;;;5057318;28;20033;-57
2024/03/20 00:06:59;;;;;;;4.75;4.20;;;;;;;;;;5056653;28;20021;-57
2024/03/20 00:09:25;;;;;;;6.50;4.50;;;;;;;;;;5057281;28;20111;-56
2024/03/20 00:11:51;;;;;;;5.75;4.50;;;;;;;;;;5056623;28;20028;-56
2024/03/20 00:14:17;;;;;;;5.97;4.82;;;;;;;;;;5056639;28;20091;-57
2024/03/20 00:16:43;;;;;;;7.80;5.60;;;;;;;;;;5056460;28;20025;-56
2024/03/20 00:19:09;;;;;;;5.07;4.53;;;;;;;;;;5056580;28;20025;-57
2024/03/20 00:21:35;;;;;;;9.30;5.72;;;;;;;;;;5056452;28;20057;-57
2024/03/20 00:24:01;;;;;;;6.15;4.40;;;;;;;;;;5056996;28;20052;-57
2024/03/20 00:26:27;;;;;;;6.68;5.45;;;;;;;;;;5056929;28;20029;-55
2024/03/20 00:28:53;;;;;;;6.55;5.45;;;;;;;;;;5056765;28;20033;-57
2024/03/20 00:31:19;;;;;;;8.40;5.45;;;;;;;;;;5057053;28;20025;-57
2024/03/20 00:33:45;;;;;;;8.07;5.20;;;;;;;;;;5056738;28;20073;-57
2024/03/20 00:36:11;;;;;;;8.20;5.50;;;;;;;;;;5055897;28;20029;-57
2024/03/20 00:38:37;;;;;;;5.47;4.95;;;;;;;;;;5056384;28;20029;-57
2024/03/20 00:41:06;;;;;;;10.82;5.15;;;;;;;;;;5056306;28;20032;-56
2024/03/20 00:43:32;;;;;;;6.72;5.72;;;;;;;;;;5055826;28;20032;-57
2024/03/20 00:45:58;;;;;;;7.45;5.63;;;;;;;;;;5056092;28;20025;-56
2024/03/20 00:48:25;;;;;;;5.78;5.07;;;;;;;;;;5056303;28;20135;-57
2024/03/20 00:50:51;;;;;;;6.63;5.95;;;;;;;;;;5055920;28;20036;-57
2024/03/20 00:53:17;;;;;;;6.35;5.70;;;;;;;;;;5055879;28;20025;-56
2024/03/20 00:55:43;;;;;;;7.97;6.43;;;;;;;;;;5055835;28;20017;-55
2024/03/20 00:58:11;;;;;;;6.20;5.53;;;;;;;;;;5055835;28;20111;-55
2024/03/20 01:00:38;;;;;;;7.95;5.75;;;;;;;;;;5055712;28;20398;-57
2024/03/20 01:03:04;;;;;;;11.70;6.25;;;;;;;;;;5055529;28;20021;-56
2024/03/20 01:05:29;;;;;;;7.82;5.85;;;;;;;;;;5055959;28;20025;-56
2024/03/20 01:07:55;;;;;;;6.22;5.63;;;;;;;;;;5055715;28;20454;-57
2024/03/20 01:10:21;;;;;;;6.70;6.07;;;;;;;;;;5055922;28;20025;-55
2024/03/20 01:12:48;;;;;;;6.22;4.97;;;;;;;;;;5055547;28;20029;-58
2024/03/20 01:15:14;;;;;;;6.63;5.95;;;;;;;;;;5055513;28;20036;-57
2024/03/20 01:17:40;;;;;;;7.28;6.00;;;;;;;;;;5055382;28;20029;-57
2024/03/20 01:20:07;;;;;;;6.35;5.45;;;;;;;;;;5055723;28;20032;-58
2024/03/20 01:22:36;;;;;;;6.75;5.65;;;;;;;;;;5055319;28;20494;-57
2024/03/20 01:25:03;;;;;;;7.13;5.40;;;;;;;;;;5055607;28;20032;-54
2024/03/20 01:27:29;;;;;;;6.95;5.10;;;;;;;;;;5055791;28;20115;-58
2024/03/20 01:29:55;;;;;;;6.95;6.28;;;;;;;;;;5055858;28;20072;-57
2024/03/20 01:32:21;;;;;;;6.28;5.60;;;;;;;;;;5055188;28;20029;-56
2024/03/20 01:34:47;;;;;;;8.35;6.25;;;;;;;;;;5055089;28;20033;-57
2024/03/20 01:37:14;;;;;;;6.32;5.43;;;;;;;;;;5055734;28;20041;-57
2024/03/20 01:39:40;;;;;;;6.25;4.93;;;;;;;;;;5055041;28;20025;-57
2024/03/20 01:42:06;;;;;;;6.75;6.13;;;;;;;;;;5055796;28;20116;-57
2024/03/20 01:44:32;;;;;;;8.57;5.97;;;;;;;;;;5055424;28;20025;-57
2024/03/20 01:46:57;;;;;;;8.55;6.57;;;;;;;;;;5054592;28;20147;-55
2024/03/20 01:49:23;;;;;;;6.47;5.10;;;;;;;;;;5055209;28;20036;-56
2024/03/20 01:51:49;;;;;;;9.82;6.10;;;;;;;;;;5055338;28;20036;-57
2024/03/20 01:54:16;;;;;;;7.88;6.32;;;;;;;;;;5054446;28;20025;-57
2024/03/20 01:56:43;;;;;;;9.90;6.53;;;;;;;;;;5054376;28;20041;-55
2024/03/20 01:59:09;;;;;;;11.85;6.45;;;;;;;;;;5054701;28;20108;-55
2024/03/20 02:01:37;;;;;;;7.13;6.25;;;;;;;;;;5055338;28;20055;-54
2024/03/20 02:04:06;;;;;;;8.20;6.95;;;;;;;;;;5054598;28;20478;-57
2024/03/20 02:06:32;;;;;;;7.90;6.85;;;;;;;;;;5054455;28;20035;-57
2024/03/20 02:08:59;;;;;;;7.20;5.93;;;;;;;;;;5054550;28;20120;-55
2024/03/20 02:11:26;;;;;;;6.60;5.88;;;;;;;;;;5054918;28;20028;-57
2024/03/20 02:13:52;;;;;;;7.20;6.32;;;;;;;;;;5054113;28;20086;-57
2024/03/20 02:16:19;;;;;;;7.63;6.18;;;;;;;;;;5054294;28;20021;-56
2024/03/20 02:18:46;;;;;;;10.15;6.53;;;;;;;;;;5054480;28;20133;-54
2024/03/20 02:21:12;;;;;;;9.18;6.70;;;;;;;;;;5053982;28;20063;-57
2024/03/20 02:23:39;;;;;;;6.95;5.78;;;;;;;;;;5053914;28;20116;-57
2024/03/20 02:26:05;;;;;;;8.35;7.10;;;;;;;;;;5054739;28;20032;-56
2024/03/20 02:28:34;;;;;;;7.13;6.38;;;;;;;;;;5054189;28;20124;-56
2024/03/20 02:31:04;;;;;;;6.63;5.85;;;;;;;;;;5054029;28;20500;-57
2024/03/20 02:33:30;;;;;;;7.05;5.80;;;;;;;;;;5054612;28;20458;-56
2024/03/20 02:35:56;;;;;;;10.38;7.00;;;;;;;;;;5053980;28;20111;-57
2024/03/20 02:38:23;;;;;;;8.55;7.18;;;;;;;;;;5054606;28;20590;-57
2024/03/20 02:40:49;;;;;;;8.55;6.10;;;;;;;;;;5053994;28;20025;-56
2024/03/20 02:43:16;;;;;;;10.95;7.80;;;;;;;;;;5054412;28;20056;-56
2024/03/20 02:45:42;;;;;;;11.38;7.60;;;;;;;;;;5054400;28;20035;-56
2024/03/20 02:48:09;;;;;;;7.88;6.97;;;;;;;;;;5054166;28;20057;-56
2024/03/20 02:50:35;;;;;;;11.45;7.78;;;;;;;;;;5053804;28;20356;-57
2024/03/20 02:53:04;;;;;;;10.70;8.98;;;;;;;;;;5053706;28;20048;-57
2024/03/20 02:55:31;;;;;;;9.13;7.47;;;;;;;;;;5053736;28;20060;-56
2024/03/20 02:57:56;;;;;;;9.13;8.23;;;;;;;;;;5054229;28;20210;-55
2024/03/20 03:00:22;;;;;;;8.98;7.80;;;;;;;;;;5053704;28;20082;-55
2024/03/20 03:02:48;;;;;;;8.30;7.50;;;;;;;;;;5053616;28;20437;-56
2024/03/20 03:05:14;;;;;;;9.50;8.40;;;;;;;;;;5053650;28;20056;-57
2024/03/20 03:07:40;;;;;;;8.77;7.88;;;;;;;;;;5053836;28;20053;-55
2024/03/20 03:10:08;;;;;;;8.85;7.95;;;;;;;;;;5054162;28;20060;-57
2024/03/20 03:12:34;;;;;;;9.05;8.13;;;;;;;;;;5053528;28;20036;-57
2024/03/20 03:15:00;;;;;;;9.73;8.73;;;;;;;;;;5053815;28;20420;-56
2024/03/20 03:17:26;;;;;;;9.55;8.55;;;;;;;;;;5053438;28;20040;-55
2024/03/20 03:19:52;;;;;;;9.68;8.30;;;;;;;;;;5053302;28;20025;-57
2024/03/20 03:22:19;;;;;;;8.65;7.82;;;;;;;;;;5053612;28;20029;-53
2024/03/20 03:24:45;;;;;;;10.13;7.68;;;;;;;;;;5053668;28;20068;-57
2024/03/20 03:27:11;;;;;;;10.27;8.63;;;;;;;;;;5053914;28;20129;-56
2024/03/20 03:29:37;;;;;;;11.00;8.88;;;;;;;;;;5054229;28;20429;-55
2024/03/20 03:32:03;;;;;;;9.05;8.23;;;;;;;;;;5053946;28;20021;-58
2024/03/20 03:34:29;;;;;;;9.60;8.65;;;;;;;;;;5053048;28;20116;-55
2024/03/20 03:36:55;;;;;;;9.75;8.35;;;;;;;;;;5057274;28;20025;-56
2024/03/20 03:39:21;;;;;;;8.32;7.15;;;;;;;;;;5057097;28;20029;-57
2024/03/20 03:41:47;;;;;;;8.95;8.00;;;;;;;;;;5056936;28;20028;-56
2024/03/20 03:44:13;;;;;;;10.50;7.53;;;;;;;;;;5057577;28;20021;-56
2024/03/20 03:46:39;;;;;;;8.65;7.85;;;;;;;;;;5057153;28;20029;-57
2024/03/20 03:49:05;;;;;;;8.02;7.22;;;;;;;;;;5057224;28;20037;-57
2024/03/20 03:51:30;;;;;;;8.88;7.97;;;;;;;;;;5057400;28;20032;-56
2024/03/20 03:53:56;;;;;;;11.80;8.23;;;;;;;;;;5057633;28;20029;-56
2024/03/20 03:56:22;;;;;;;10.65;9.10;;;;;;;;;;5057016;28;20049;-55
2024/03/20 03:58:49;;;;;;;10.55;7.70;;;;;;;;;;5056789;28;20041;-57
2024/03/20 04:01:15;;;;;;;9.55;8.13;;;;;;;;;;5057451;28;20025;-57
2024/03/20 04:03:41;;;;;;;8.20;7.40;;;;;;;;;;5057295;28;20021;-57
2024/03/20 04:06:07;;;;;;;9.50;8.48;;;;;;;;;;5057296;28;20029;-56
2024/03/20 04:08:33;;;;;;;9.07;8.18;;;;;;;;;;5057628;28;20025;-56
2024/03/20 04:10:59;;;;;;;9.45;7.68;;;;;;;;;;5056695;28;20096;-56
2024/03/20 04:13:25;;;;;;;8.55;7.65;;;;;;;;;;5057212;28;20032;-57
2024/03/20 04:15:54;;;;;;;10.40;8.75;;;;;;;;;;5056634;28;20131;-57
2024/03/20 04:18:20;;;;;;;9.15;7.60;;;;;;;;;;5057067;28;20095;-57
2024/03/20 04:20:46;;;;;;;9.52;8.52;;;;;;;;;;5056583;28;20025;-56
2024/03/20 04:23:12;;;;;;;10.32;8.80;;;;;;;;;;5056467;28;20027;-55
2024/03/20 04:25:39;;;;;;;10.10;9.10;;;;;;;;;;5056459;28;20375;-55
2024/03/20 04:28:05;;;;;;;9.38;8.02;;;;;;;;;;5056985;28;20128;-56
2024/03/20 04:30:31;;;;;;;9.50;8.57;;;;;;;;;;5056109;28;20021;-56
2024/03/20 04:32:57;;;;;;;10.02;8.10;;;;;;;;;;5056351;28;20039;-57
2024/03/20 04:35:23;;;;;;;8.57;7.65;;;;;;;;;;5056721;28;20021;-57
2024/03/20 04:37:49;;;;;;;7.97;7.25;;;;;;;;;;5056173;28;20048;-57
2024/03/20 04:40:15;;;;;;;9.27;7.97;;;;;;;;;;5056261;28;20075;-57
2024/03/20 04:42:41;;;;;;;10.05;8.45;;;;;;;;;;5055831;28;20025;-55
2024/03/20 04:45:09;;;;;;;8.68;7.80;;;;;;;;;;5055777;28;20037;-56
2024/03/20 04:47:36;;;;;;;9.93;8.38;;;;;;;;;;5054684;28;20029;-55
2024/03/20 04:50:02;;;;;;;10.10;8.32;;;;;;;;;;5056877;28;20163;-53
2024/03/20 04:52:28;;;;;;;11.18;9.05;;;;;;;;;;5055962;28;20410;-57
2024/03/20 04:54:56;;;;;;;8.50;7.57;;;;;;;;;;5056462;28;20021;-57
2024/03/20 04:57:22;;;;;;;8.10;7.32;;;;;;;;;;5055393;28;20060;-57
2024/03/20 04:59:48;;;;;;;9.82;8.63;;;;;;;;;;5056625;28;20351;-54
2024/03/20 05:02:14;;;;;;;8.95;7.93;;;;;;;;;;5055801;28;20075;-57
2024/03/20 05:04:40;;;;;;;8.80;7.90;;;;;;;;;;5055814;28;20025;-55
2024/03/20 05:07:06;;;;;;;8.20;7.40;;;;;;;;;;5055517;28;20463;-57
2024/03/20 05:09:32;;;;;;;8.90;8.00;;;;;;;;;;5056216;28;20025;-57
2024/03/20 05:11:57;;;;;;;10.18;7.65;;;;;;;;;;5055706;28;20079;-56
2024/03/20 05:14:23;;;;;;;11.38;7.25;;;;;;;;;;5055302;28;20052;-57
2024/03/20 05:16:51;;;;;;;9.05;7.07;;;;;;;;;;5055515;28;20455;-56
2024/03/20 05:19:17;;;;;;;7.55;6.57;;;;;;;;;;5056117;28;20115;-57
2024/03/20 05:21:43;;;;;;;8.85;7.95;;;;;;;;;;5055380;28;20059;-58
2024/03/20 05:24:09;;;;;;;9.15;8.20;;;;;;;;;;5055849;28;20020;-57
2024/03/20 05:26:35;;;;;;;8.18;7.38;;;;;;;;;;5055610;28;20472;-57
2024/03/20 05:29:02;;;;;;;8.65;7.63;;;;;;;;;;5055526;28;20032;-57
2024/03/20 05:31:29;;;;;;;8.02;7.18;;;;;;;;;;5054836;28;20029;-57
2024/03/20 05:33:55;;;;;;;8.68;6.57;;;;;;;;;;5055869;28;20056;-57
2024/03/20 05:36:21;;;;;;;9.00;7.18;;;;;;;;;;5054881;28;20033;-58
2024/03/20 05:38:47;;;;;;;11.50;7.55;;;;;;;;;;5055776;28;20068;-57
2024/03/20 05:41:13;;;;;;;9.20;7.18;;;;;;;;;;5055466;28;20033;-56
2024/03/20 05:43:40;;;;;;;8.45;7.55;;;;;;;;;;5055366;28;20099;-58
2024/03/20 05:46:09;;;;;;;8.63;6.78;;;;;;;;;;5055323;28;20443;-56
2024/03/20 05:48:35;;;;;;;8.32;7.50;;;;;;;;;;5055333;28;20037;-55
2024/03/20 05:51:01;;;;;;;10.15;7.88;;;;;;;;;;5055053;28;20028;-54
2024/03/20 05:53:26;;;;;;;7.97;6.90;;;;;;;;;;5054998;28;20029;-57
2024/03/20 05:55:54;;;;;;;9.38;8.45;;;;;;;;;;5054371;28;20054;-55
2024/03/20 05:58:20;;;;;;;8.57;7.20;;;;;;;;;;5055363;28;20366;-53
2024/03/20 06:00:46;;;;;;;9.43;7.80;;;;;;;;;;5055124;28;20055;-57
2024/03/20 06:03:12;;;;;;;8.73;7.93;;;;;;;;;;5054299;28;20033;-57
2024/03/20 06:05:38;;;;;;;8.20;7.40;;;;;;;;;;5054691;28;20025;-54
2024/03/20 06:08:04;;;;;;;8.80;7.97;;;;;;;;;;5054701;28;20417;-57
2024/03/20 06:10:30;;;;;;;9.02;7.20;;;;;;;;;;5054911;28;20053;-57
2024/03/20 06:12:56;;;;;;;8.80;7.55;;;;;;;;;;5054808;28;20025;-57
2024/03/20 06:15:22;;;;;;;11.40;8.52;;;;;;;;;;5054245;28;20029;-58
2024/03/20 06:17:48;;;;;;;9.80;7.35;;;;;;;;;;5054768;28;20043;-58
2024/03/20 06:20:15;;;;;;;10.18;6.88;;;;;;;;;;5054519;28;20024;-56
2024/03/20 06:22:41;;;;;;;9.38;7.78;;;;;;;;;;5054105;28;20029;-58
2024/03/20 06:25:07;;;;;;;9.55;8.63;;;;;;;;;;5054059;28;20413;-58
2024/03/20 06:27:35;;;;;;;8.15;7.35;;;;;;;;;;5054373;28;20470;-58
2024/03/20 06:30:04;;;;;;;8.90;7.93;;;;;;;;;;5054191;28;20529;-55
2024/03/20 06:32:32;;;;;;;9.35;8.45;;;;;;;;;;5054327;28;20039;-55
2024/03/20 06:34:58;;;;;;;9.80;8.90;;;;;;;;;;5054400;28;20032;-56
2024/03/20 06:37:24;;;;;;;10.30;8.32;;;;;;;;;;5053966;28;20471;-55
2024/03/20 06:39:50;;;;;;;10.57;7.95;;;;;;;;;;5053793;28;20021;-57
2024/03/20 06:42:21;;;;;;;9.50;8.60;;;;;;;;;;5053997;28;20078;-56
2024/03/20 06:44:48;;;;;;;10.63;9.52;;;;;;;;;;5053856;28;20032;-56
2024/03/20 06:47:23;;;;;;;12.02;9.63;;;;;;;;;;5054567;28;20370;-56
2024/03/20 06:49:49;;;;;;;9.65;8.73;;;;;;;;;;5054569;28;20086;-58
2024/03/20 06:52:22;;;;;;;9.00;8.10;;;;;;;;;;5054301;28;20451;-56
2024/03/20 06:54:48;;;;;;;9.00;8.10;;;;;;;;;;5054173;28;20486;-57
2024/03/20 06:57:14;;;;;;;9.05;8.25;;;;;;;;;;5054207;28;20085;-56
2024/03/20 06:59:43;;;;;;;9.70;8.70;;;;;;;;;;5054238;28;20119;-58
2024/03/20 07:02:09;;;;;;;9.38;7.82;;;;;;;;;;5054032;28;20111;-56
2024/03/20 07:04:35;;;;;;;9.18;7.43;;;;;;;;;;5053320;28;20036;-56
2024/03/20 07:07:03;;;;;;;9.73;7.68;;;;;;;;;;5053677;28;20455;-55
2024/03/20 07:09:29;;;;;;;8.00;7.07;;;;;;;;;;5053709;28;20025;-56
2024/03/20 07:11:55;;;;;;;7.78;7.00;;;;;;;;;;5053301;28;20104;-58
2024/03/20 07:14:21;;;;;;;8.90;6.88;;;;;;;;;;5053664;28;20466;-56
2024/03/20 07:16:47;;;;;;;7.90;7.18;;;;;;;;;;5053621;28;20450;-56
2024/03/20 07:19:13;;;;;;;7.10;5.90;;;;;;;;;;5054373;28;20025;-57
2024/03/20 07:21:39;;;;;;;7.93;6.38;;;;;;;;;;5053530;28;20104;-56
2024/03/20 07:24:08;;;;;;;6.78;5.95;;;;;;;;;;5053775;28;20017;-57
2024/03/20 07:26:37;;;;;;;6.32;5.50;;;;;;;;;;5053476;28;20075;-59
2024/03/20 07:29:13;;;;;;;6.03;5.43;;;;;;;;;;5053676;28;20470;-56
2024/03/20 07:31:39;;;;;;;6.97;5.70;;;;;;;;;;5054238;28;20313;-57
2024/03/20 07:34:06;;;;;;;6.93;5.43;;;;;;;;;;5053435;28;20021;-53
2024/03/20 07:36:35;;;;;;;6.95;6.22;;;;;;;;;;5052978;28;20455;-57
2024/03/20 07:39:03;;;;;;;6.40;5.28;;;;;;;;;;5053422;28;20033;-54
2024/03/20 07:41:29;;;;;;;6.80;5.53;;;;;;;;;;5053286;28;20037;-58
2024/03/20 07:43:56;;;;;;;6.75;5.25;;;;;;;;;;5053547;28;20032;-55
2024/03/20 07:46:22;;;;;;;8.35;6.25;;;;;;;;;;5052979;28;20031;-58
2024/03/20 07:48:48;;;;;;;6.28;4.75;;;;;;;;;;5054227;28;20036;-56
2024/03/20 07:51:15;;;;;;;5.85;4.55;;;;;;;;;;5053342;28;20120;-57
2024/03/20 07:53:42;;;;;;;5.78;4.95;;;;;;;;;;5053279;28;20028;-57
2024/03/20 07:56:08;;;;;;;6.25;4.75;;;;;;;;;;5053159;28;20076;-54
2024/03/20 07:58:34;;;;;;;4.95;4.28;;;;;;;;;;5053830;28;20036;-57
2024/03/20 08:01:00;;;;;;;5.30;4.45;;;;;;;;;;5053980;28;20033;-57
2024/03/20 08:03:27;;;;;;;5.72;4.30;;;;;;;;;;5053691;28;20044;-58
2024/03/20 08:05:54;;;;;;;6.05;4.50;;;;;;;;;;5053225;28;20068;-57
2024/03/20 08:08:20;;;;;;;4.57;3.75;;;;;;;;;;5053192;28;20509;-56
2024/03/20 08:10:46;;;;;;;4.82;3.85;;;;;;;;;;5053450;28;20025;-56
2024/03/20 08:13:12;;;;;;;5.13;3.65;;;;;;;;;;5053144;28;20025;-58
2024/03/20 08:15:42;;;;;;;3.80;3.40;;;;;;;;;;5053242;28;20037;-57
2024/03/20 08:18:08;;;;;;;7.63;3.22;;;;;;;;;;5052936;28;20479;-57
2024/03/20 08:20:34;;;;;;;3.75;3.05;;;;;;;;;;5053566;28;20040;-57
2024/03/20 08:23:03;;;;;;;4.35;3.33;;;;;;;;;;5055346;28;20032;-57
2024/03/20 08:25:29;;;;;;;6.10;3.33;;;;;;;;;;5056753;28;20021;-57
2024/03/20 08:27:55;;;;;;;5.60;3.40;;;;;;;;;;5057048;28;20029;-56
2024/03/20 08:30:21;;;;;;;6.75;3.70;;;;;;;;;;5056729;28;20028;-56
2024/03/20 08:32:48;;;;;;;4.90;3.25;;;;;;;;;;5056482;28;20029;-57
2024/03/20 08:35:16;;;;;;;4.70;3.13;;;;;;;;;;5056230;28;20086;-57
2024/03/20 08:37:43;;;;;;;4.03;3.03;;;;;;;;;;5057164;28;20068;-56
2024/03/20 08:40:09;;;;;;;3.35;2.75;;;;;;;;;;5056693;28;20032;-58
2024/03/20 08:42:35;;;;;;;3.38;2.60;;;;;;;;;;5056245;28;20025;-57
2024/03/20 08:45:02;;;;;;;3.55;2.40;;;;;;;;;;5056739;28;20083;-57
2024/03/20 08:47:28;;;;;;;3.20;2.65;;;;;;;;;;5056197;28;20028;-58
2024/03/20 08:49:55;;;;;;;3.95;2.65;;;;;;;;;;5056535;28;20371;-56
2024/03/20 08:52:21;;;;;;;2.83;2.30;;;;;;;;;;5056196;28;20083;-58
2024/03/20 08:54:49;;;;;;;7.80;3.28;;;;;;;;;;5056926;28;20025;-57
2024/03/20 08:57:16;;;;;;;3.22;2.15;;;;;;;;;;5056357;28;20536;-58
2024/03/20 08:59:42;;;;;;;3.58;2.63;;;;;;;;;;5056510;28;20466;-58
2024/03/20 09:02:09;;;;;;;4.90;2.72;;;;;;;;;;5056052;28;20025;-58
2024/03/20 09:04:35;;;;;;;2.90;2.55;;;;;;;;;;5056731;28;20036;-58
2024/03/20 09:07:01;;;;;;;3.17;2.40;;;;;;;;;;5055844;28;20025;-57
2024/03/20 09:09:28;;;;;;;3.83;2.90;;;;;;;;;;5056352;28;20029;-57
2024/03/20 09:11:54;;;;;;;3.22;2.80;;;;;;;;;;5055795;28;20033;-57
2024/03/20 09:14:20;;;;;;;3.50;2.58;;;;;;;;;;5055803;28;20040;-58
2024/03/20 09:16:49;;;;;;;2.97;1.92;;;;;;;;;;5055978;28;20095;-58
2024/03/20 09:19:16;;;;;;;4.35;3.72;;;;;;;;;;5055331;28;20467;-57
2024/03/20 09:21:43;;;;;;;4.03;2.67;;;;;;;;;;5056339;28;20040;-58
2024/03/20 09:24:12;;;;;;;3.20;2.65;;;;;;;;;;5055466;28;20033;-55
2024/03/20 09:26:38;;;;;;;4.22;2.95;;;;;;;;;;5055552;28;20021;-58
2024/03/20 09:29:04;;;;;;;2.97;2.47;;;;;;;;;;5056173;28;20512;-58
2024/03/20 09:31:29;;;;;;;6.45;2.67;;;;;;;;;;5055695;28;20078;-57
2024/03/20 09:33:57;;;;;;;3.15;2.58;;;;;;;;;;5054928;28;20112;-58
2024/03/20 09:36:23;;;;;;;4.85;2.90;;;;;;;;;;5055278;28;20022;-58
2024/03/20 09:38:49;;;;;;;4.15;2.97;;;;;;;;;;5055038;28;20044;-58
2024/03/20 09:41:16;;;;;;;4.35;3.10;;;;;;;;;;5055005;28;20036;-58
2024/03/20 09:43:43;;;;;;;4.30;2.97;;;;;;;;;;5055703;28;20044;-58
2024/03/20 09:46:12;;;;;;;5.72;2.97;;;;;;;;;;5055106;28;20032;-58
2024/03/20 09:48:39;;;;;;;2.90;2.42;;;;;;;;;;5055447;28;20036;-58
2024/03/20 09:51:05;;;;;;;4.10;3.38;;;;;;;;;;5055195;28;20036;-58
2024/03/20 09:53:34;;;;;;;4.40;2.70;;;;;;;;;;5054961;28;20033;-57
2024/03/20 09:56:09;;;;;;;4.05;2.10;;;;;;;;;;5054727;28;20082;-57
2024/03/20 09:58:35;;;;;;;3.72;2.60;;;;;;;;;;5055062;28;20033;-58
2024/03/20 10:01:01;;;;;;;3.35;2.83;;;;;;;;;;5055117;28;20029;-58
2024/03/20 10:03:27;;;;;;;7.57;3.25;;;;;;;;;;5055219;28;20036;-58
2024/03/20 10:05:53;;;;;;;4.80;2.75;;;;;;;;;;5054919;28;20034;-58
2024/03/20 10:08:19;;;;;;;2.92;2.22;;;;;;;;;;5055287;28;20397;-58
2024/03/20 10:10:45;;;;;;;3.50;2.10;;;;;;;;;;5055432;28;20378;-58
2024/03/20 10:13:13;;;;;;;3.30;2.58;;;;;;;;;;5054575;28;20063;-58
2024/03/20 10:15:39;;;;;;;4.75;2.55;;;;;;;;;;5054574;28;20115;-58
2024/03/20 10:18:05;;;;;;;4.80;2.63;;;;;;;;;;5054261;28;20160;-58
2024/03/20 10:20:33;;;;;;;4.20;2.47;;;;;;;;;;5054375;28;20079;-58
2024/03/20 10:23:00;;;;;;;2.65;1.95;;;;;;;;;;5052872;28;20082;-58
2024/03/20 10:25:26;;;;;;;5.78;2.55;;;;;;;;;;5054272;28;20104;-58
2024/03/20 10:27:54;;;;;;;3.83;2.08;;;;;;;;;;5054966;28;20113;-59
2024/03/20 10:30:21;;;;;;;5.78;1.77;;;;;;;;;;5054267;28;20109;-58
2024/03/20 10:32:48;;;;;;;3.53;2.33;;;;;;;;;;5054713;28;20025;-58
2024/03/20 10:35:15;;;;;;;2.08;1.30;;;;;;;;;;5054560;28;20443;-58
2024/03/20 10:37:45;;;;;;;3.22;1.55;;;;;;;;;;5054116;28;20442;-58
2024/03/20 10:40:21;;;;;;;2.90;2.00;;;;;;;;;;5055043;28;20321;-58
2024/03/20 10:42:49;;;;;;;3.47;2.05;;;;;;;;;;5054384;28;20116;-58
2024/03/20 10:45:15;;;;;;;2.72;1.80;;;;;;;;;;5053875;28;20025;-58
2024/03/20 10:47:41;;;;;;;3.63;1.98;;;;;;;;;;5054024;28;20044;-58
2024/03/20 10:50:15;;;;;;;3.45;1.17;;;;;;;;;;5054781;28;20021;-59
2024/03/20 10:52:45;;;;;;;3.67;1.52;;;;;;;;;;5053860;28;20426;-58
2024/03/20 10:55:12;;;;;;;2.53;1.55;;;;;;;;;;5054268;28;20100;-58
2024/03/20 10:57:39;;;;;;;2.90;1.35;;;;;;;;;;5053942;28;20053;-58
2024/03/20 11:00:09;;;;;;;4.18;1.58;;;;;;;;;;5053846;28;20017;-58
2024/03/20 11:02:35;;;;;;;3.30;1.40;;;;;;;;;;5054684;28;20032;-58
2024/03/20 11:05:01;;;;;;;1.65;1.15;;;;;;;;;;5054573;28;20078;-58
2024/03/20 11:07:30;;;;;;;2.00;1.30;;;;;;;;;;5053833;28;20100;-58
2024/03/20 11:09:56;;;;;;;3.28;1.30;;;;;;;;;;5053083;28;20029;-59
2024/03/20 11:12:27;;;;;;;3.08;1.70;;;;;;;;;;5054225;28;20126;-57
2024/03/20 11:14:53;;;;;;;;;;;;;;;;;;5054051;28;20025;-58
2024/03/20 11:17:20;;;;;;;1.38;0.98;;;;;;;;;;5054090;28;20327;-57
2024/03/20 11:19:47;;;;;;;2.65;2.05;;;;;;;;;;5054205;28;20025;-57
2024/03/20 11:22:22;;;;;;;2.67;1.58;;;;;;;;;;5054167;28;20025;-57
2024/03/20 11:24:50;;;;;;;2.80;1.85;;;;;;;;;;5053448;28;20048;-57
2024/03/20 11:27:16;;;;;;;2.38;1.35;;;;;;;;;;5053450;28;20027;-58
2024/03/20 11:29:42;;;;;;;2.20;1.45;;;;;;;;;;5054243;28;20056;-57
2024/03/20 11:32:14;;;;;;;2.67;1.83;;;;;;;;;;5053631;28;20052;-57
2024/03/20 11:34:43;;;;;;;3.50;1.20;;;;;;;;;;5053296;28;20107;-57
2024/03/20 11:37:19;;;;;;;1.98;1.00;;;;;;;;;;5053111;28;20067;-58
2024/03/20 11:39:46;;;;;;;2.15;1.30;;;;;;;;;;5053879;28;20021;-57
2024/03/20 11:42:13;;;;;;;2.55;1.33;;;;;;;;;;5053595;28;20021;-58
2024/03/20 11:44:39;;;;;;;2.22;0.90;;;;;;;;;;5053249;28;20029;-58
2024/03/20 11:47:08;;;;;;;1.92;1.10;;;;;;;;;;5053198;28;20421;-57
2024/03/20 11:49:34;;;;;;;1.17;0.73;;;;;;;;;;5053510;28;20397;-58
2024/03/20 11:52:03;;;;;;;2.20;0.80;;;;;;;;;;5053189;28;20025;-59
2024/03/20 11:54:29;;;;;;;2.80;1.45;;;;;;;;;;5052988;28;20472;-58
2024/03/20 11:56:55;;;;;;;4.18;1.33;;;;;;;;;;5056184;28;20057;-58
2024/03/20 11:59:21;;;;;;;1.75;0.85;;;;;;;;;;5057378;28;20486;-58
2024/03/20 12:01:54;;;;;;;1.63;0.80;;;;;;;;;;5056990;28;20029;-60
2024/03/20 12:04:20;;;;;;;3.42;0.90;;;;;;;;;;5057115;28;20028;-59
2024/03/20 12:06:46;;;;;;;2.95;1.13;;;;;;;;;;5056677;28;20025;-58
2024/03/20 12:09:16;;;;;;;1.50;0.60;;;;;;;;;;5057371;28;20024;-58
2024/03/20 12:11:42;;;;;;;1.10;0.40;;;;;;;;;;5056884;28;20021;-58
2024/03/20 12:14:08;;;;;;;2.47;0.82;;;;;;;;;;5057521;28;20440;-58
2024/03/20 12:16:35;;;;;;;2.40;1.35;;;;;;;;;;5057435;28;20107;-58
2024/03/20 12:19:01;;;;;;;4.30;1.00;;;;;;;;;;5057317;28;20037;-58
2024/03/20 12:21:28;;;;;;;1.92;1.17;;;;;;;;;;5057604;28;20501;-58
2024/03/20 12:23:54;;;;;;;1.75;0.90;;;;;;;;;;5056370;28;20491;-58
2024/03/20 12:26:24;;;;;;;1.88;0.60;;;;;;;;;;5056730;28;20032;-59
2024/03/20 12:28:51;;;;;;;2.77;1.07;;;;;;;;;;5057255;28;20029;-58
2024/03/20 12:31:19;;;;;;;2.30;1.10;;;;;;;;;;5057374;28;20078;-58
2024/03/20 12:33:46;;;;;;;3.80;1.10;;;;;;;;;;5057357;28;20362;-58
2024/03/20 12:36:12;;;;;;;1.85;0.75;;;;;;;;;;5056540;28;20336;-58
2024/03/20 12:38:38;;;;;;;1.27;0.65;;;;;;;;;;5056889;28;20115;-58
2024/03/20 12:41:08;;;;;;;1.35;0.68;;;;;;;;;;5056379;28;20491;-59
2024/03/20 12:43:35;;;;;;;2.10;0.75;;;;;;;;;;5056821;28;20070;-59
2024/03/20 12:46:01;;;;;;;1.83;0.85;;;;;;;;;;5056052;28;20119;-59
2024/03/20 12:48:27;;;;;;;2.47;1.05;;;;;;;;;;5056572;28;20064;-58
2024/03/20 12:50:53;;;;;;;1.30;0.60;;;;;;;;;;5056175;28;20028;-58
2024/03/20 12:53:19;;;;;;;1.15;0.65;;;;;;;;;;5056046;28;20112;-58
2024/03/20 12:55:45;;;;;;;4.35;0.77;;;;;;;;;;5055748;28;20074;-58
2024/03/20 12:58:13;;;;;;;1.25;0.73;;;;;;;;;;5055867;28;20078;-58
2024/03/20 13:00:39;;;;;;;2.78;0.95;;;;;;;;;;5056528;28;20021;-58
2024/03/20 13:03:06;;;;;;;1.77;0.90;;;;;;;;;;5055983;28;20076;-58
2024/03/20 13:05:32;;;;;;;2.80;0.90;;;;;;;;;;5055967;28;20059;-59
2024/03/20 13:07:59;;;;;;;1.20;0.52;;;;;;;;;;5055526;28;20083;-58
2024/03/20 13:10:26;;;;;;;1.23;0.77;;;;;;;;;;5055870;28;20025;-58
2024/03/20 13:12:53;;;;;;;2.50;0.95;;;;;;;;;;5056059;28;20032;-58
2024/03/20 13:15:20;;;;;;;1.45;0.82;;;;;;;;;;5055384;28;20483;-58
2024/03/20 13:17:46;;;;;;;1.23;0.70;;;;;;;;;;5055651;28;20033;-58
2024/03/20 13:20:12;;;;;;;2.03;1.27;;;;;;;;;;5055665;28;20032;-58
2024/03/20 13:22:39;;;;;;;1.25;0.75;;;;;;;;;;5056069;28;20032;-59
2024/03/20 13:25:06;;;;;;;2.30;0.90;;;;;;;;;;5055614;28;20025;-58
2024/03/20 13:27:32;;;;;;;2.03;0.80;;;;;;;;;;5055745;28;20033;-58
2024/03/20 13:30:00;;;;;;;2.35;1.00;;;;;;;;;;5056102;28;20387;-58
2024/03/20 13:32:33;;;;;;;1.70;0.65;;;;;;;;;;5055913;28;20053;-59
2024/03/20 13:35:11;;;;;;;1.63;0.85;;;;;;;;;;5056151;28;20437;-59
2024/03/20 13:37:39;;;;;;;1.23;0.57;;;;;;;;;;5055795;28;20040;-59
2024/03/20 13:40:16;;;;;;;1.70;0.80;;;;;;;;;;5055856;28;20070;-59
2024/03/20 13:43:18;;;;;;;3.63;0.98;;;;;;;;;;5055667;28;20025;-58
2024/03/20 13:45:54;;;;;;;1.48;0.77;;;;;;;;;;5055729;28;20020;-58
2024/03/20 13:48:20;;;;;;;1.30;0.73;;;;;;;;;;5055217;28;20021;-58
2024/03/20 13:50:46;;;;;;;3.58;1.38;;;;;;;;;;5054673;28;20051;-58
2024/03/20 13:53:12;;;;;;;1.52;0.63;;;;;;;;;;5054987;28;20112;-58
2024/03/20 13:55:38;;;;;;;1.50;0.90;;;;;;;;;;5055532;28;20021;-58
2024/03/20 13:58:04;;;;;;;1.05;0.50;;;;;;;;;;5055783;28;20463;-59
2024/03/20 14:00:30;;;;;;;1.38;0.75;;;;;;;;;;5055456;28;20021;-58
2024/03/20 14:02:56;;;;;;;1.35;0.70;;;;;;;;;;5055159;28;20106;-58
2024/03/20 14:05:23;;;;;;;3.00;1.08;;;;;;;;;;5054814;28;20359;-59
2024/03/20 14:07:49;;;;;;;2.35;1.00;;;;;;;;;;5054685;28;20483;-58
2024/03/20 14:10:16;;;;;;;0.98;0.52;;;;;;;;;;5055345;28;20078;-59
2024/03/20 14:12:43;;;;;;;3.05;0.90;;;;;;;;;;5055074;28;20036;-58
2024/03/20 14:15:12;;;;;;;1.33;0.68;;;;;;;;;;5054365;28;20554;-58
2024/03/20 14:17:38;;;;;;;1.33;0.63;;;;;;;;;;5054396;28;20029;-59
2024/03/20 14:20:06;;;;;;;1.77;1.23;;;;;;;;;;5054599;28;20459;-58
2024/03/20 14:22:32;;;;;;;5.03;1.10;;;;;;;;;;5054518;28;20593;-58
2024/03/20 14:24:58;;;;;;;3.10;1.00;;;;;;;;;;5054401;28;20032;-59
2024/03/20 14:27:24;;;;;;;2.05;0.98;;;;;;;;;;5054058;28;20033;-58
2024/03/20 14:29:50;;;;;;;0.73;0.43;;;;;;;;;;5054943;28;20078;-59
2024/03/20 14:32:17;;;;;;;1.30;0.73;;;;;;;;;;5054384;28;20017;-59
2024/03/20 14:34:42;;;;;;;2.17;0.85;;;;;;;;;;5054407;28;20468;-59
2024/03/20 14:37:11;;;;;;;1.13;0.55;;;;;;;;;;5054783;28;20048;-59
2024/03/20 14:39:38;;;;;;;1.70;1.00;;;;;;;;;;5054571;28;20459;-59
2024/03/20 14:42:06;;;;;;;1.70;0.85;;;;;;;;;;5054250;28;20032;-59